Veuillez saisir l'adresse e-mail associée à votre compte d'utilisateur. Un code de vérification vous sera adressé. Lorsque vous le recevrez, vous pourrez choisir un nouveau mot de passe

METAR TAF

[Source: ADDS]
METAR
LFCR 260330Z AUTO 15005KT CAVOK 16/12 Q1019 NOSIG =
LFCR 252300Z 2600/2624 11004KT CAVOK BECMG 2616/2618 14010KT LFBA 260330Z AUTO VRB03KT CAVOK 18/17 Q1016 =
LFSL 260330Z AUTO 13005KT CAVOK 20/14 Q1017 NOSIG =
LFSL 260200Z 2603/2612 12004KT CAVOK LFLW 260330Z AUTO 12004KT CAVOK 17/11 Q1019 =
TAF
LFCR 252300Z 2600/2624 11004KT CAVOK BECMG 2616/2618 14010KT =
LFSL 260200Z 2603/2612 12004KT CAVOK =
SR / SS: 05:10 / 18:41 UTC (LFCC 2019-08-26)